createdAt,value
2023-02-08T00:03:02.229Z,20.33
2023-02-08T00:07:04.306Z,20.90
2023-02-08T00:11:06.929Z,19.73
2023-02-08T00:15:08.906Z,20.65
2023-02-08T00:19:10.478Z,18.73
2023-02-08T00:23:13.007Z,21.98
2023-02-08T00:27:15.786Z,20.13
2023-02-08T00:31:17.301Z,21.27
2023-02-08T00:35:18.903Z,19.20
2023-02-08T00:39:21.185Z,22.42
2023-02-08T00:43:22.665Z,20.42
2023-02-08T00:47:24.799Z,20.50
2023-02-08T00:51:26.239Z,20.92
2023-02-08T00:55:27.751Z,21.80
2023-02-08T00:59:29.276Z,20.67
2023-02-08T01:03:33.878Z,19.58
2023-02-08T01:07:38.685Z,18.52
2023-02-08T01:11:40.135Z,20.88
2023-02-08T01:15:41.619Z,19.65
2023-02-08T01:19:43.074Z,20.83
2023-02-08T01:23:45.673Z,20.52
2023-02-08T01:27:47.823Z,21.70
2023-02-08T01:31:49.365Z,19.05
2023-02-08T01:35:53.962Z,18.70
2023-02-08T01:39:55.494Z,18.73
2023-02-08T01:43:59.839Z,17.55
2023-02-08T01:48:04.720Z,20.00
2023-02-08T01:52:16.987Z,16.77
2023-02-08T01:56:23.400Z,16.42
2023-02-08T02:00:25.048Z,16.85
2023-02-08T02:04:27.450Z,17.50
2023-02-08T02:08:30.569Z,17.98
2023-02-08T02:12:33.840Z,18.42
2023-02-08T02:16:36.143Z,19.45
2023-02-08T02:20:43.675Z,18.63
2023-02-08T02:25:23.689Z,18.60
2023-02-08T02:29:31.355Z,14.82
2023-02-08T02:33:58.477Z,15.73
2023-02-08T02:38:21.817Z,13.30
2023-02-08T02:43:01.191Z,15.88
2023-02-08T02:47:15.653Z,15.50
2023-02-08T02:51:27.213Z,14.73
2023-02-08T02:55:32.345Z,16.85
2023-02-08T02:59:35.307Z,14.25
2023-02-08T03:03:36.874Z,17.98
2023-02-08T03:07:41.117Z,16.95
2023-02-08T03:11:54.352Z,17.75
2023-02-08T03:15:58.586Z,16.60
2023-02-08T03:20:08.528Z,15.38
2023-02-08T03:24:26.684Z,15.25
2023-02-08T03:28:49.220Z,13.73
2023-02-08T03:32:56.945Z,17.42
2023-02-08T03:37:08.192Z,16.52
2023-02-08T03:41:14.238Z,15.25
2023-02-08T03:45:21.808Z,13.65
2023-02-08T03:49:29.622Z,11.77
2023-02-08T03:53:38.177Z,13.52
2023-02-08T03:57:54.748Z,15.73
2023-02-08T04:02:01.946Z,13.93
2023-02-08T04:06:03.732Z,11.95
2023-02-08T04:10:05.517Z,13.32
2023-02-08T04:14:06.987Z,13.55
2023-02-08T04:18:08.520Z,14.13
2023-02-08T04:22:09.972Z,13.43
2023-02-08T04:26:11.465Z,12.35
2023-02-08T04:30:13.602Z,13.43
2023-02-08T04:34:15.449Z,13.63
2023-02-08T04:38:16.881Z,14.15
2023-02-08T04:42:18.735Z,13.03
2023-02-08T04:46:20.229Z,15.95
2023-02-08T04:50:21.784Z,12.07
2023-02-08T04:54:23.311Z,14.07
2023-02-08T04:58:24.849Z,12.45
2023-02-08T05:02:26.264Z,13.93
2023-02-08T05:06:27.711Z,11.73
2023-02-08T05:10:29.196Z,11.73
2023-02-08T05:14:30.759Z,8.55
2023-02-08T05:18:32.205Z,12.90
2023-02-08T05:22:33.818Z,14.05
2023-02-08T05:26:35.235Z,12.13
2023-02-08T05:30:38.546Z,12.63
2023-02-08T05:34:40.297Z,11.52
2023-02-08T05:38:41.711Z,14.63
2023-02-08T05:42:44.444Z,14.00
2023-02-08T05:46:45.956Z,14.18
2023-02-08T05:50:47.478Z,14.48
2023-02-08T05:54:48.889Z,12.25
2023-02-08T05:58:50.285Z,11.85
2023-02-08T06:02:51.998Z,14.15
2023-02-08T06:06:53.523Z,11.32
2023-02-08T06:10:54.982Z,12.27
2023-02-08T06:14:56.475Z,11.65
2023-02-08T06:18:58.305Z,12.05
2023-02-08T06:22:59.786Z,11.77
2023-02-08T06:27:01.227Z,12.55
2023-02-08T06:31:02.701Z,14.73
2023-02-08T06:35:04.350Z,13.98
2023-02-08T06:39:05.968Z,14.05
2023-02-08T06:43:07.558Z,12.57
2023-02-08T06:47:08.975Z,13.43
2023-02-08T06:51:10.432Z,14.02
2023-02-08T06:55:11.908Z,13.95
2023-02-08T06:59:13.485Z,17.30
2023-02-08T07:03:17.387Z,15.93
2023-02-08T07:07:19.419Z,14.25
2023-02-08T07:11:21.964Z,13.88
2023-02-08T07:15:23.403Z,14.50
2023-02-08T07:19:24.881Z,13.00
2023-02-08T07:23:26.363Z,13.65
2023-02-08T07:27:27.976Z,16.02
2023-02-08T07:31:29.500Z,12.55
2023-02-08T07:35:31.029Z,12.80
2023-02-08T07:39:32.706Z,9.43
2023-02-08T07:43:35.890Z,15.80
2023-02-08T07:47:37.385Z,10.00
2023-02-08T07:51:38.848Z,14.65
2023-02-08T07:55:40.278Z,15.15
2023-02-08T07:59:41.740Z,15.02
2023-02-08T08:03:43.231Z,14.27
2023-02-08T08:07:44.729Z,14.23
2023-02-08T08:11:46.509Z,13.10
2023-02-08T08:15:47.931Z,13.82
2023-02-08T08:19:49.386Z,14.52
2023-02-08T08:23:50.882Z,17.23
2023-02-08T08:27:52.911Z,14.15
2023-02-08T08:31:54.406Z,15.43
2023-02-08T08:35:57.095Z,16.85
2023-02-08T08:39:58.633Z,17.05
2023-02-08T08:44:00.105Z,17.85
2023-02-08T08:48:03.312Z,16.95
2023-02-08T08:52:07.737Z,15.25
2023-02-08T08:56:09.350Z,18.05
2023-02-08T09:00:11.675Z,16.63
2023-02-08T09:04:13.214Z,14.88
2023-02-08T09:08:14.677Z,14.75
2023-02-08T09:12:16.170Z,15.70
2023-02-08T09:16:18.463Z,15.63
2023-02-08T09:20:20.062Z,16.02
2023-02-08T09:24:21.616Z,17.35
2023-02-08T09:28:23.131Z,14.73
2023-02-08T09:32:24.706Z,17.75
2023-02-08T09:36:31.600Z,18.55
2023-02-08T09:40:48.784Z,16.83
2023-02-08T09:45:07.231Z,17.52
2023-02-08T09:49:19.787Z,17.70
2023-02-08T09:53:35.131Z,17.83
2023-02-08T09:57:38.456Z,16.58
2023-02-08T10:01:39.959Z,17.02
2023-02-08T10:05:41.642Z,17.17
2023-02-08T10:09:43.202Z,20.10
2023-02-08T10:13:56.904Z,18.27
2023-02-08T10:18:04.450Z,14.13
2023-02-08T10:22:47.117Z,18.88
2023-02-08T10:26:54.178Z,17.90
2023-02-08T10:31:30.506Z,16.83
2023-02-08T10:35:38.984Z,16.25
2023-02-08T10:39:40.863Z,16.77
2023-02-08T10:44:08.374Z,17.08
2023-02-08T10:48:22.885Z,17.13
2023-02-08T10:52:24.414Z,15.73
2023-02-08T10:56:49.793Z,16.40
2023-02-08T11:00:52.070Z,17.08
2023-02-08T11:05:07.696Z,17.35
2023-02-08T11:09:35.601Z,17.90
2023-02-08T11:13:46.116Z,17.60
2023-02-08T11:17:47.692Z,18.77
2023-02-08T11:21:51.937Z,16.42
2023-02-08T11:25:54.830Z,16.60
2023-02-08T11:30:14.573Z,15.32
2023-02-08T11:34:25.128Z,13.25
2023-02-08T11:38:28.190Z,17.83
2023-02-08T11:42:35.198Z,17.85
2023-02-08T11:46:37.432Z,15.80
2023-02-08T11:50:39.444Z,16.83
2023-02-08T11:54:42.432Z,12.73
2023-02-08T11:59:19.288Z,18.30
2023-02-08T12:03:37.590Z,19.63
2023-02-08T12:07:47.640Z,15.85
2023-02-08T12:16:16.831Z,17.25
2023-02-08T12:20:32.155Z,18.15
2023-02-08T12:24:51.016Z,17.48
2023-02-08T12:29:06.308Z,15.82
2023-02-08T12:33:23.002Z,14.90
2023-02-08T12:37:43.158Z,17.63
2023-02-08T12:42:16.290Z,17.27
2023-02-08T12:46:46.418Z,18.13
2023-02-08T12:50:55.963Z,18.52
2023-02-08T12:55:02.967Z,18.02
2023-02-08T12:59:13.521Z,18.17
2023-02-08T13:03:56.880Z,19.45
2023-02-08T13:08:36.875Z,18.52
2023-02-08T13:12:46.031Z,17.95
2023-02-08T13:16:52.212Z,18.30
2023-02-08T13:20:59.304Z,17.70
2023-02-08T13:25:07.662Z,18.30
2023-02-08T13:29:18.312Z,17.70
2023-02-08T13:33:46.602Z,17.10
2023-02-08T13:38:31.833Z,18.08
2023-02-08T13:42:48.584Z,17.67
2023-02-08T13:46:51.149Z,18.17
2023-02-08T13:50:57.038Z,17.90
2023-02-08T13:55:32.002Z,16.42
2023-02-08T13:59:35.305Z,16.05
2023-02-08T14:03:36.951Z,18.00
2023-02-08T14:07:38.473Z,16.98
2023-02-08T14:12:06.858Z,16.95
2023-02-08T14:16:38.580Z,15.23
2023-02-08T14:20:41.168Z,16.98
2023-02-08T14:25:15.938Z,15.60
2023-02-08T14:29:29.968Z,16.25
2023-02-08T14:33:50.070Z,16.95
2023-02-08T14:38:20.340Z,17.05
2023-02-08T14:43:00.741Z,17.92
2023-02-08T14:47:02.411Z,16.37
2023-02-08T14:51:09.819Z,15.32
2023-02-08T14:55:21.666Z,16.25
2023-02-08T14:59:26.992Z,15.93
2023-02-08T15:03:31.664Z,17.08
2023-02-08T15:07:49.600Z,15.52
2023-02-08T15:12:24.928Z,16.35
2023-02-08T15:16:40.153Z,13.45
2023-02-08T15:20:43.754Z,14.73
2023-02-08T15:24:56.640Z,15.95
2023-02-08T15:29:00.851Z,15.43
2023-02-08T15:33:07.540Z,16.17
2023-02-08T15:37:16.495Z,15.75
2023-02-08T15:41:30.121Z,16.35
2023-02-08T15:45:31.664Z,14.80
2023-02-08T15:49:39.118Z,13.43
2023-02-08T15:53:43.560Z,13.95
2023-02-08T15:57:54.363Z,15.02
2023-02-08T16:01:58.315Z,14.73
2023-02-08T16:06:03.330Z,12.82
2023-02-08T16:10:08.183Z,13.00
2023-02-08T16:14:15.061Z,14.88
2023-02-08T16:18:39.682Z,12.63
2023-02-08T16:22:41.152Z,13.60
2023-02-08T16:26:57.967Z,11.32
2023-02-08T16:31:02.626Z,13.65
2023-02-08T16:35:19.645Z,14.55
2023-02-08T16:39:39.565Z,12.52
2023-02-08T16:43:44.002Z,13.48
2023-02-08T16:47:52.096Z,13.88
2023-02-08T16:52:00.249Z,14.50
2023-02-08T16:56:01.943Z,14.10
2023-02-08T17:00:18.188Z,13.40
2023-02-08T17:04:19.756Z,14.63
2023-02-08T17:08:22.252Z,15.02
2023-02-08T17:12:24.389Z,15.18
2023-02-08T17:16:28.620Z,15.48
2023-02-08T17:20:33.766Z,14.35
2023-02-08T17:24:36.774Z,14.05
2023-02-08T17:28:39.534Z,13.55
2023-02-08T17:32:40.977Z,13.15
2023-02-08T17:36:42.841Z,14.38
2023-02-08T17:40:44.875Z,13.35
2023-02-08T17:44:46.436Z,13.95
2023-02-08T17:48:48.429Z,13.73
2023-02-08T17:52:50.046Z,13.75
2023-02-08T17:56:56.476Z,13.82
2023-02-08T18:00:58.008Z,12.77
2023-02-08T18:04:59.632Z,14.02
2023-02-08T18:09:01.789Z,13.70
2023-02-08T18:13:03.251Z,12.98
2023-02-08T18:17:05.377Z,13.02
2023-02-08T18:21:15.536Z,13.18
2023-02-08T18:25:17.580Z,12.02
2023-02-08T18:29:19.298Z,12.32
2023-02-08T18:33:20.790Z,12.80
2023-02-08T18:37:23.082Z,12.90
2023-02-08T18:41:26.920Z,12.10
2023-02-08T18:45:28.464Z,12.43
2023-02-08T18:49:29.954Z,14.38
2023-02-08T18:53:34.218Z,12.27
2023-02-08T18:57:38.764Z,13.23
2023-02-08T19:01:40.380Z,13.25
2023-02-08T19:05:42.249Z,12.48
2023-02-08T19:09:44.116Z,12.65
2023-02-08T19:13:46.845Z,13.10
2023-02-08T19:17:48.283Z,11.93
2023-02-08T19:21:49.773Z,13.13
2023-02-08T19:25:51.298Z,12.38
2023-02-08T19:29:56.132Z,12.10
2023-02-08T19:33:59.889Z,13.90
2023-02-08T19:38:01.450Z,12.82
2023-02-08T19:42:03.183Z,12.50
2023-02-08T19:46:13.718Z,12.70
2023-02-08T19:50:15.210Z,13.77
2023-02-08T19:54:18.445Z,11.93
2023-02-08T19:58:19.891Z,12.38
2023-02-08T20:02:24.330Z,11.68
2023-02-08T20:06:29.475Z,11.23
2023-02-08T20:10:30.908Z,11.73
2023-02-08T20:14:33.769Z,13.75
2023-02-08T20:18:35.262Z,11.98
2023-02-08T20:22:36.728Z,11.20
2023-02-08T20:26:43.586Z,12.77
2023-02-08T20:30:45.079Z,12.25
2023-02-08T20:34:58.439Z,13.63
2023-02-08T20:39:00.810Z,12.68
2023-02-08T20:43:02.264Z,11.55
2023-02-08T20:47:03.919Z,11.88
2023-02-08T20:51:12.929Z,11.20
2023-02-08T20:55:14.627Z,8.40
2023-02-08T20:59:16.540Z,10.35
2023-02-08T21:03:18.053Z,12.82
2023-02-08T21:07:19.665Z,10.45
2023-02-08T21:11:23.806Z,10.73
2023-02-08T21:15:25.306Z,10.95
2023-02-08T21:19:28.997Z,9.77
2023-02-08T21:23:30.534Z,11.40
2023-02-08T21:27:32.070Z,9.55
2023-02-08T21:31:36.335Z,10.02
2023-02-08T21:35:38.388Z,10.25
2023-02-08T21:39:39.844Z,10.52
2023-02-08T21:43:41.856Z,10.20
2023-02-08T21:47:43.272Z,8.23
2023-02-08T21:52:03.870Z,10.15
2023-02-08T21:56:08.964Z,11.50
2023-02-08T22:00:11.351Z,9.38
2023-02-08T22:04:12.829Z,10.82
2023-02-08T22:08:14.345Z,10.73
2023-02-08T22:12:18.360Z,9.07
2023-02-08T22:16:20.048Z,9.90
2023-02-08T22:20:21.781Z,9.75
2023-02-08T22:24:23.232Z,9.30
2023-02-08T22:28:24.720Z,10.25
2023-02-08T22:32:26.299Z,9.77
2023-02-08T22:36:27.793Z,8.40
2023-02-08T22:40:29.385Z,10.20
2023-02-08T22:44:30.876Z,8.18
2023-02-08T22:48:32.728Z,10.60
2023-02-08T22:52:34.565Z,12.05
2023-02-08T22:56:36.076Z,10.02
2023-02-08T23:00:37.660Z,9.43
2023-02-08T23:04:39.232Z,10.27
2023-02-08T23:08:40.744Z,9.57
2023-02-08T23:12:42.240Z,9.90
2023-02-08T23:16:44.018Z,11.35
2023-02-08T23:20:45.957Z,9.57
2023-02-08T23:24:47.648Z,9.07
2023-02-08T23:28:54.034Z,10.82
2023-02-08T23:32:55.635Z,10.02
2023-02-08T23:36:57.064Z,10.43
2023-02-08T23:41:03.132Z,10.93
2023-02-08T23:45:05.430Z,10.45
2023-02-08T23:49:06.882Z,9.23
2023-02-08T23:53:08.324Z,9.57
2023-02-08T23:57:09.859Z,9.65
